Mobridge, South Dakota
Current Conditions -  °F | °C
As of 12:52 PM on Sunday 21 Dec 2014 (Local Time) from KMBG Reporting Station
Clear Clear  
Wind Chill: 34°   Ceiling: Unl
Heat Index: 40°   Visibility: 10mi
Dew Point: 29°   Wind: 9mph
Humidity: 65%   Direction: 140°SE
Pressure: 29.44"   Gusts: NA
Location:  45.54°N, 100.43°W
Report Text: KMBG 211852Z AUTO 14008KT 10SM CLR 04/M02 A2944 RMK AO2 SLP983 T00441017
Loading
Personal Weather Stations






























Interactive Weather Map New forecast layout! Learn more

10-Day Weather Forecast

Advertisements
Track Severe Weather on mobile